createdAt,value
2023-05-25T00:00:03.968Z,4.00
2023-05-25T00:02:33.893Z,3.43
2023-05-25T00:05:05.084Z,4.23
2023-05-25T00:07:33.732Z,3.87
2023-05-25T00:10:02.110Z,4.47
2023-05-25T00:12:30.780Z,3.73
2023-05-25T00:14:59.198Z,3.40
2023-05-25T00:17:32.197Z,3.50
2023-05-25T00:20:08.203Z,3.93
2023-05-25T00:22:39.374Z,4.03
2023-05-25T00:25:08.701Z,3.70
2023-05-25T00:27:37.099Z,4.57
2023-05-25T00:30:07.833Z,3.83
2023-05-25T00:32:36.209Z,3.90
2023-05-25T00:35:04.826Z,3.73
2023-05-25T00:37:33.235Z,4.10
2023-05-25T00:40:03.170Z,3.87
2023-05-25T00:42:32.300Z,3.93
2023-05-25T00:45:00.721Z,4.33
2023-05-25T00:47:29.465Z,4.00
2023-05-25T00:49:59.162Z,3.80
2023-05-25T00:52:28.266Z,4.20
2023-05-25T00:54:59.572Z,4.50
2023-05-25T00:57:34.320Z,4.33
2023-05-25T01:00:09.152Z,4.17
2023-05-25T01:02:42.303Z,4.20
2023-05-25T01:05:13.456Z,4.13
2023-05-25T01:07:45.417Z,3.90
2023-05-25T01:10:17.055Z,4.77
2023-05-25T01:12:47.906Z,4.87
2023-05-25T01:15:16.454Z,3.83
2023-05-25T01:17:46.923Z,4.17
2023-05-25T01:20:15.885Z,3.83
2023-05-25T01:22:51.543Z,4.17
2023-05-25T01:25:25.403Z,4.07
2023-05-25T01:27:58.953Z,4.43
2023-05-25T01:30:28.394Z,3.93
2023-05-25T01:32:58.401Z,4.07
2023-05-25T01:35:28.439Z,4.20
2023-05-25T01:38:00.522Z,3.97
2023-05-25T01:40:29.272Z,4.47
2023-05-25T01:42:57.681Z,3.77
2023-05-25T01:45:28.172Z,4.00
2023-05-25T01:48:04.777Z,3.80
2023-05-25T01:50:40.740Z,3.67
2023-05-25T01:53:13.915Z,3.83
2023-05-25T01:55:49.251Z,4.03
2023-05-25T01:58:19.844Z,3.90
2023-05-25T02:00:51.055Z,3.70
2023-05-25T02:03:20.219Z,3.70
2023-05-25T02:05:49.814Z,4.13
2023-05-25T02:08:21.203Z,4.50
2023-05-25T02:10:49.678Z,4.20
2023-05-25T02:13:18.187Z,3.93
2023-05-25T02:15:46.843Z,3.57
2023-05-25T02:18:17.923Z,4.00
2023-05-25T02:20:47.764Z,4.07
2023-05-25T02:23:18.741Z,3.70
2023-05-25T02:25:51.812Z,4.57
2023-05-25T02:28:20.321Z,3.77
2023-05-25T02:30:48.930Z,4.43
2023-05-25T02:33:18.882Z,4.07
2023-05-25T02:35:47.435Z,4.47
2023-05-25T02:38:15.853Z,4.20
2023-05-25T02:40:44.238Z,3.67
2023-05-25T02:43:14.096Z,3.90
2023-05-25T02:45:43.107Z,4.00
2023-05-25T02:48:11.783Z,3.17
2023-05-25T02:50:40.158Z,3.53
2023-05-25T02:53:11.963Z,3.80
2023-05-25T02:55:40.708Z,3.77
2023-05-25T02:58:13.430Z,3.47
2023-05-25T03:01:01.408Z,4.13
2023-05-25T03:03:30.496Z,3.37
2023-05-25T03:05:59.030Z,3.60
2023-05-25T03:08:27.614Z,4.10
2023-05-25T03:10:56.228Z,3.70
2023-05-25T03:13:26.272Z,3.90
2023-05-25T03:15:54.675Z,3.70
2023-05-25T03:18:24.736Z,4.10
2023-05-25T03:20:53.263Z,4.27
2023-05-25T03:23:21.718Z,4.10
2023-05-25T03:25:52.592Z,3.70
2023-05-25T03:28:23.040Z,3.97
2023-05-25T03:30:53.023Z,3.97
2023-05-25T03:33:21.444Z,4.00
2023-05-25T03:35:51.243Z,4.33
2023-05-25T03:38:19.662Z,3.70
2023-05-25T03:40:48.712Z,3.90
2023-05-25T03:43:17.116Z,3.63
2023-05-25T03:45:48.423Z,4.13
2023-05-25T03:48:19.056Z,4.17
2023-05-25T03:50:48.420Z,3.60
2023-05-25T03:53:17.703Z,3.87
2023-05-25T03:55:46.843Z,4.17
2023-05-25T03:58:16.254Z,4.10
2023-05-25T04:00:44.840Z,3.67
2023-05-25T04:03:13.271Z,3.40
2023-05-25T04:05:43.613Z,3.77
2023-05-25T04:08:12.187Z,4.07
2023-05-25T04:10:42.806Z,3.87
2023-05-25T04:13:11.222Z,4.33
2023-05-25T04:15:39.711Z,5.23
2023-05-25T04:18:12.075Z,5.93
2023-05-25T04:20:40.794Z,5.93
2023-05-25T04:23:13.291Z,7.10
2023-05-25T04:25:45.765Z,7.73
2023-05-25T04:28:16.010Z,6.83
2023-05-25T04:31:02.423Z,5.03
2023-05-25T04:33:45.587Z,4.90
2023-05-25T04:36:35.525Z,4.90
2023-05-25T04:39:08.102Z,4.50
2023-05-25T04:41:41.198Z,4.83
2023-05-25T04:44:11.807Z,4.90
2023-05-25T04:46:44.764Z,4.70
2023-05-25T04:49:19.905Z,5.10
2023-05-25T04:51:48.462Z,5.37
2023-05-25T04:54:18.479Z,4.50
2023-05-25T04:56:47.113Z,4.50
2023-05-25T04:59:16.431Z,4.30
2023-05-25T05:01:46.015Z,4.57
2023-05-25T05:04:18.087Z,4.60
2023-05-25T05:06:47.473Z,4.83
2023-05-25T05:09:21.689Z,4.23
2023-05-25T05:11:50.562Z,4.40
2023-05-25T05:14:20.442Z,5.17
2023-05-25T05:16:50.436Z,4.37
2023-05-25T05:19:18.886Z,4.00
2023-05-25T05:21:47.790Z,4.40
2023-05-25T05:24:18.360Z,4.03
2023-05-25T05:26:58.112Z,4.47
2023-05-25T05:29:31.483Z,4.30
2023-05-25T05:31:59.984Z,4.33
2023-05-25T05:34:28.394Z,4.13
2023-05-25T05:36:58.794Z,4.30
2023-05-25T05:39:29.241Z,4.37
2023-05-25T05:41:59.661Z,3.93
2023-05-25T05:44:29.477Z,4.33
2023-05-25T05:47:01.830Z,4.40
2023-05-25T05:49:32.141Z,4.23
2023-05-25T05:52:02.391Z,4.23
2023-05-25T05:54:32.237Z,4.30
2023-05-25T05:57:07.867Z,4.33
2023-05-25T05:59:36.260Z,3.50
2023-05-25T06:02:04.850Z,4.77
2023-05-25T06:04:33.762Z,4.00
2023-05-25T06:07:02.211Z,4.00
2023-05-25T06:09:30.796Z,4.00
2023-05-25T06:12:01.875Z,4.00
2023-05-25T06:14:32.054Z,4.63
2023-05-25T06:17:03.620Z,4.17
2023-05-25T06:19:32.177Z,4.20
2023-05-25T06:22:00.725Z,3.93
2023-05-25T06:24:29.182Z,4.57
2023-05-25T06:26:57.620Z,4.53
2023-05-25T06:29:27.065Z,5.17
2023-05-25T06:31:57.247Z,6.40
2023-05-25T06:34:26.143Z,5.20
2023-05-25T06:36:54.578Z,4.30
2023-05-25T06:39:22.981Z,3.73
2023-05-25T06:41:52.331Z,4.00
2023-05-25T06:44:30.839Z,3.93
2023-05-25T06:47:04.424Z,3.63
2023-05-25T06:49:33.056Z,3.83
2023-05-25T06:52:01.774Z,3.70
2023-05-25T06:54:31.312Z,3.77
2023-05-25T06:56:59.739Z,3.97
2023-05-25T06:59:28.219Z,3.20
2023-05-25T07:01:59.178Z,3.43
2023-05-25T07:04:29.730Z,3.50
2023-05-25T07:06:58.167Z,3.40
2023-05-25T07:09:26.545Z,3.87
2023-05-25T07:11:55.112Z,3.77
2023-05-25T07:14:23.472Z,3.60
2023-05-25T07:16:51.960Z,3.20
2023-05-25T07:19:20.347Z,4.00
2023-05-25T07:21:50.164Z,3.17
2023-05-25T07:24:19.183Z,3.53
2023-05-25T07:26:48.437Z,3.40
2023-05-25T07:29:17.074Z,3.40
2023-05-25T07:31:47.281Z,3.27
2023-05-25T07:34:16.417Z,3.43
2023-05-25T07:36:44.885Z,3.40
2023-05-25T07:39:14.754Z,2.70
2023-05-25T07:41:43.242Z,3.70
2023-05-25T07:44:14.073Z,3.17
2023-05-25T07:46:42.542Z,3.10
2023-05-25T07:49:15.966Z,2.93
2023-05-25T07:51:44.909Z,3.10
2023-05-25T07:54:14.850Z,2.87
2023-05-25T07:56:43.333Z,2.57
2023-05-25T07:59:12.761Z,2.43
2023-05-25T08:01:41.401Z,2.50
2023-05-25T08:04:09.983Z,2.40
2023-05-25T08:06:38.707Z,2.87
2023-05-25T08:09:08.208Z,2.70
2023-05-25T08:11:38.117Z,2.33
2023-05-25T08:14:06.423Z,2.07
2023-05-25T08:16:34.905Z,2.40
2023-05-25T08:19:03.260Z,2.60
2023-05-25T08:21:35.071Z,2.17
2023-05-25T08:24:05.224Z,1.93
2023-05-25T08:26:52.903Z,1.87
2023-05-25T08:29:24.111Z,2.17
2023-05-25T08:31:52.475Z,2.17
2023-05-25T08:34:23.513Z,1.93
2023-05-25T08:36:51.920Z,1.93
2023-05-25T08:39:20.398Z,1.80
2023-05-25T08:41:51.187Z,1.90
2023-05-25T08:44:20.275Z,2.00
2023-05-25T08:46:50.599Z,1.87
2023-05-25T08:49:19.152Z,2.17
2023-05-25T08:51:51.011Z,1.83
2023-05-25T08:54:20.748Z,1.80
2023-05-25T08:56:52.302Z,1.70
2023-05-25T08:59:33.463Z,1.77
2023-05-25T09:02:23.807Z,2.27
2023-05-25T09:04:52.368Z,2.23
2023-05-25T09:07:21.383Z,2.43
2023-05-25T09:09:50.493Z,1.77
2023-05-25T09:12:19.950Z,2.10
2023-05-25T09:14:49.024Z,1.80
2023-05-25T09:17:20.124Z,1.67
2023-05-25T09:19:49.197Z,1.70
2023-05-25T09:22:17.837Z,2.27
2023-05-25T09:24:46.647Z,2.37
2023-05-25T09:27:19.168Z,2.03
2023-05-25T09:29:49.712Z,2.30
2023-05-25T09:32:20.313Z,2.43
2023-05-25T09:34:48.993Z,2.63
2023-05-25T09:37:19.407Z,3.00
2023-05-25T09:39:49.182Z,2.47
2023-05-25T09:42:18.714Z,2.27
2023-05-25T09:44:47.219Z,2.67
2023-05-25T09:47:17.123Z,3.00
2023-05-25T09:49:49.648Z,2.70
2023-05-25T09:52:18.223Z,2.90
2023-05-25T09:54:47.581Z,2.93
2023-05-25T09:57:17.023Z,3.00
2023-05-25T09:59:46.164Z,2.97
2023-05-25T10:02:15.286Z,3.33
2023-05-25T10:04:43.801Z,3.67
2023-05-25T10:07:16.280Z,3.93
2023-05-25T10:09:47.790Z,2.77
2023-05-25T10:12:20.272Z,2.93
2023-05-25T10:14:52.332Z,2.97
2023-05-25T10:17:25.605Z,2.70
2023-05-25T10:19:58.758Z,3.00
2023-05-25T10:22:33.895Z,2.90
2023-05-25T10:25:10.788Z,3.53
2023-05-25T10:27:42.610Z,2.63
2023-05-25T10:30:11.864Z,2.50
2023-05-25T10:32:41.795Z,2.53
2023-05-25T10:35:11.464Z,2.87
2023-05-25T10:37:41.718Z,2.50
2023-05-25T10:40:11.063Z,2.77
2023-05-25T10:42:40.259Z,2.73
2023-05-25T10:45:10.526Z,3.10
2023-05-25T10:47:42.957Z,2.90
2023-05-25T10:50:20.827Z,3.10
2023-05-25T10:53:00.131Z,2.37
2023-05-25T10:55:32.026Z,2.30
2023-05-25T10:58:10.684Z,2.60
2023-05-25T11:00:39.983Z,2.90
2023-05-25T11:03:08.891Z,2.93
2023-05-25T11:05:39.501Z,3.23
2023-05-25T11:08:12.404Z,2.70
2023-05-25T11:10:45.848Z,2.40
2023-05-25T11:13:25.546Z,3.33
2023-05-25T11:16:09.330Z,2.97
2023-05-25T11:18:43.831Z,2.97
2023-05-25T11:21:24.232Z,3.00
2023-05-25T11:23:58.749Z,3.28
2023-05-25T11:26:30.868Z,3.60
2023-05-25T11:29:00.283Z,3.27
2023-05-25T11:31:39.720Z,3.03
2023-05-25T11:34:12.059Z,3.28
2023-05-25T11:36:41.484Z,2.88
2023-05-25T11:39:20.908Z,3.50
2023-05-25T11:41:56.215Z,3.10
2023-05-25T11:44:29.741Z,3.40
2023-05-25T11:46:58.669Z,3.33
2023-05-25T11:49:27.088Z,3.15
2023-05-25T11:51:55.730Z,3.28
2023-05-25T11:54:27.256Z,2.92
2023-05-25T11:56:59.437Z,2.72
2023-05-25T11:59:30.566Z,3.00
2023-05-25T12:02:02.308Z,3.03
2023-05-25T12:04:33.122Z,3.30
2023-05-25T12:07:04.937Z,3.13
2023-05-25T12:09:35.268Z,3.22
2023-05-25T12:12:05.366Z,3.15
2023-05-25T12:14:37.438Z,2.50
2023-05-25T12:17:07.713Z,2.70
2023-05-25T12:19:36.585Z,3.30
2023-05-25T12:22:05.173Z,3.25
2023-05-25T12:24:35.094Z,3.25
2023-05-25T12:27:06.033Z,3.13
2023-05-25T12:29:34.440Z,3.28
2023-05-25T12:32:06.985Z,3.45
2023-05-25T12:34:35.869Z,3.83
2023-05-25T12:37:04.215Z,2.90
2023-05-25T12:39:39.527Z,3.42
2023-05-25T12:42:15.306Z,3.35
2023-05-25T12:44:44.581Z,3.25
2023-05-25T12:47:14.760Z,3.20
2023-05-25T12:49:45.271Z,3.33
2023-05-25T12:52:33.527Z,3.72
2023-05-25T12:55:20.535Z,3.20
2023-05-25T12:57:52.574Z,3.20
2023-05-25T13:00:23.745Z,3.78
2023-05-25T13:02:52.591Z,2.95
2023-05-25T13:05:25.170Z,3.20
2023-05-25T13:07:55.499Z,3.38
2023-05-25T13:10:26.275Z,3.30
2023-05-25T13:12:57.335Z,3.72
2023-05-25T13:15:27.064Z,3.47
2023-05-25T13:17:56.451Z,3.10
2023-05-25T13:20:26.544Z,2.95
2023-05-25T13:22:55.918Z,3.78
2023-05-25T13:25:27.804Z,3.05
2023-05-25T13:27:58.033Z,3.47
2023-05-25T13:30:27.965Z,2.70
2023-05-25T13:32:56.423Z,3.33
2023-05-25T13:35:37.921Z,2.70
2023-05-25T13:38:06.731Z,2.85
2023-05-25T13:40:36.606Z,2.80
2023-05-25T13:43:05.036Z,3.65
2023-05-25T13:45:33.632Z,2.88
2023-05-25T13:48:02.151Z,2.70
2023-05-25T13:50:30.708Z,3.50
2023-05-25T13:52:59.270Z,3.13
2023-05-25T13:55:27.728Z,2.63
2023-05-25T13:57:57.502Z,2.97
2023-05-25T14:00:25.953Z,3.28
2023-05-25T14:02:54.527Z,2.90
2023-05-25T14:05:24.172Z,2.72
2023-05-25T14:07:55.677Z,3.33
2023-05-25T14:10:24.745Z,2.88
2023-05-25T14:12:53.115Z,2.97
2023-05-25T14:15:22.965Z,2.85
2023-05-25T14:17:51.374Z,3.00
2023-05-25T14:20:25.865Z,3.15
2023-05-25T14:22:55.049Z,3.30
2023-05-25T14:25:23.360Z,3.00
2023-05-25T14:27:51.857Z,2.85
2023-05-25T14:30:20.307Z,3.03
2023-05-25T14:32:50.239Z,2.90
2023-05-25T14:35:18.701Z,2.70
2023-05-25T14:37:47.015Z,2.80
2023-05-25T14:40:15.442Z,3.10
2023-05-25T14:42:44.223Z,2.47
2023-05-25T14:45:15.255Z,3.05
2023-05-25T14:47:44.434Z,2.78
2023-05-25T14:50:14.349Z,2.92
2023-05-25T14:52:43.304Z,3.38
2023-05-25T14:55:12.039Z,3.00
2023-05-25T14:57:40.536Z,3.40
2023-05-25T15:00:10.170Z,3.03
2023-05-25T15:02:38.927Z,2.70
2023-05-25T15:05:08.701Z,3.17
2023-05-25T15:07:38.634Z,3.05
2023-05-25T15:10:08.012Z,2.95
2023-05-25T15:12:36.467Z,2.88
2023-05-25T15:15:05.228Z,3.10
2023-05-25T15:17:33.657Z,2.50
2023-05-25T15:20:02.363Z,2.63
2023-05-25T15:22:30.827Z,3.20
2023-05-25T15:25:02.549Z,2.65
2023-05-25T15:27:32.364Z,3.13
2023-05-25T15:30:00.736Z,2.92
2023-05-25T15:32:29.341Z,2.92
2023-05-25T15:34:57.753Z,3.30
2023-05-25T15:37:26.140Z,3.42
2023-05-25T15:39:54.514Z,3.63
2023-05-25T15:42:24.399Z,3.15
2023-05-25T15:44:52.869Z,2.97
2023-05-25T15:47:21.418Z,3.33
2023-05-25T15:49:49.823Z,2.90
2023-05-25T15:52:18.204Z,2.97
2023-05-25T15:54:47.591Z,2.90
2023-05-25T15:57:15.970Z,2.83
2023-05-25T15:59:45.822Z,2.35
2023-05-25T16:02:14.382Z,2.30
2023-05-25T16:04:42.916Z,2.40
2023-05-25T16:07:11.405Z,3.17
2023-05-25T16:09:39.809Z,2.20
2023-05-25T16:12:08.604Z,2.80
2023-05-25T16:14:37.045Z,2.80
2023-05-25T16:17:07.218Z,2.45
2023-05-25T16:19:35.641Z,2.33
2023-05-25T16:22:04.088Z,2.50
2023-05-25T16:24:32.532Z,2.03
2023-05-25T16:27:01.066Z,2.20
2023-05-25T16:29:29.599Z,2.47
2023-05-25T16:31:58.028Z,2.57
2023-05-25T16:34:27.877Z,2.90
2023-05-25T16:36:57.297Z,2.50
2023-05-25T16:39:25.643Z,2.70
2023-05-25T16:41:54.122Z,2.63
2023-05-25T16:44:22.459Z,2.37
2023-05-25T16:46:50.815Z,2.43
2023-05-25T16:49:19.298Z,2.80
2023-05-25T16:51:49.077Z,2.53
2023-05-25T16:54:17.608Z,2.03
2023-05-25T16:56:46.372Z,2.50
2023-05-25T16:59:14.714Z,2.90
2023-05-25T17:01:43.211Z,2.87
2023-05-25T17:04:11.795Z,3.00
2023-05-25T17:06:40.313Z,2.30
2023-05-25T17:09:11.926Z,2.87
2023-05-25T17:11:40.431Z,2.67
2023-05-25T17:14:08.993Z,2.70
2023-05-25T17:16:37.473Z,2.40
2023-05-25T17:19:05.869Z,2.67
2023-05-25T17:21:35.036Z,2.00
2023-05-25T17:24:03.642Z,2.23
2023-05-25T17:26:33.504Z,2.50
2023-05-25T17:29:01.947Z,2.90
2023-05-25T17:31:30.345Z,2.60
2023-05-25T17:33:58.830Z,2.40
2023-05-25T17:36:27.379Z,2.47
2023-05-25T17:38:55.835Z,2.83
2023-05-25T17:41:25.292Z,2.53
2023-05-25T17:43:55.008Z,2.77
2023-05-25T17:46:23.434Z,2.83
2023-05-25T17:48:51.957Z,2.50
2023-05-25T17:51:21.758Z,2.37
2023-05-25T17:53:50.363Z,2.47
2023-05-25T17:56:19.711Z,2.33
2023-05-25T17:58:48.370Z,2.67
2023-05-25T18:01:18.283Z,2.80
2023-05-25T18:03:50.773Z,2.73
2023-05-25T18:06:19.357Z,2.40
2023-05-25T18:08:47.757Z,2.83
2023-05-25T18:11:16.208Z,2.50
2023-05-25T18:13:44.657Z,2.70
2023-05-25T18:16:13.054Z,2.40
2023-05-25T18:18:42.836Z,2.57
2023-05-25T18:21:11.301Z,2.23
2023-05-25T18:23:39.615Z,2.37
2023-05-25T18:26:08.075Z,2.43
2023-05-25T18:28:36.351Z,3.10
2023-05-25T18:31:04.824Z,2.87
2023-05-25T18:33:33.201Z,2.47
2023-05-25T18:36:03.017Z,2.40
2023-05-25T18:38:31.418Z,2.50
2023-05-25T18:40:59.822Z,2.80
2023-05-25T18:43:28.236Z,2.67
2023-05-25T18:45:56.636Z,3.27
2023-05-25T18:48:25.980Z,2.17
2023-05-25T18:50:54.409Z,2.23
2023-05-25T18:53:24.277Z,2.33
2023-05-25T18:55:52.865Z,2.33
2023-05-25T18:58:22.207Z,2.03
2023-05-25T19:00:50.681Z,2.30
2023-05-25T19:03:19.301Z,2.03
2023-05-25T19:05:47.831Z,2.37
2023-05-25T19:08:16.246Z,2.30
2023-05-25T19:10:46.092Z,2.07
2023-05-25T19:13:14.552Z,2.37
2023-05-25T19:15:43.256Z,2.30
2023-05-25T19:18:11.811Z,2.20
2023-05-25T19:20:40.265Z,2.20
2023-05-25T19:23:08.740Z,2.33
2023-05-25T19:25:37.150Z,1.90
2023-05-25T19:28:06.939Z,2.80
2023-05-25T19:30:35.278Z,2.33
2023-05-25T19:33:04.079Z,2.30
2023-05-25T19:35:32.630Z,1.83
2023-05-25T19:38:02.094Z,2.27
2023-05-25T19:40:30.929Z,2.23
2023-05-25T19:42:59.622Z,2.20
2023-05-25T19:45:29.438Z,2.17
2023-05-25T19:47:58.062Z,1.83
2023-05-25T19:50:30.550Z,2.10
2023-05-25T19:52:59.639Z,2.30
2023-05-25T19:55:28.517Z,2.07
2023-05-25T19:57:57.023Z,2.63
2023-05-25T20:00:26.974Z,2.03
2023-05-25T20:02:57.359Z,2.13
2023-05-25T20:05:25.774Z,2.17
2023-05-25T20:07:56.032Z,1.90
2023-05-25T20:10:24.432Z,2.30
2023-05-25T20:12:52.859Z,2.10
2023-05-25T20:15:21.358Z,2.07
2023-05-25T20:17:49.789Z,2.23
2023-05-25T20:20:19.716Z,2.00
2023-05-25T20:22:48.197Z,2.20
2023-05-25T20:25:16.630Z,2.20
2023-05-25T20:27:45.047Z,2.40
2023-05-25T20:30:17.109Z,2.00
2023-05-25T20:32:45.898Z,2.07
2023-05-25T20:35:14.847Z,2.33
2023-05-25T20:37:44.760Z,2.30
2023-05-25T20:40:13.226Z,2.67
2023-05-25T20:42:41.786Z,2.13
2023-05-25T20:45:10.990Z,2.37
2023-05-25T20:47:41.844Z,2.27
2023-05-25T20:50:10.480Z,2.00
2023-05-25T20:52:39.007Z,2.07
2023-05-25T20:55:09.961Z,2.13
2023-05-25T20:57:38.343Z,2.30
2023-05-25T21:00:08.410Z,2.30
2023-05-25T21:02:36.923Z,2.50
2023-05-25T21:05:05.828Z,2.53
2023-05-25T21:07:34.244Z,2.10
2023-05-25T21:10:04.309Z,2.30
2023-05-25T21:12:34.223Z,2.93
2023-05-25T21:15:02.648Z,1.90
2023-05-25T21:17:31.398Z,2.37
2023-05-25T21:19:59.840Z,2.20
2023-05-25T21:22:28.268Z,2.17
2023-05-25T21:24:56.752Z,2.33
2023-05-25T21:27:25.125Z,2.37
2023-05-25T21:29:55.706Z,2.27
2023-05-25T21:32:24.205Z,3.00
2023-05-25T21:34:52.991Z,2.53
2023-05-25T21:37:21.951Z,2.60
2023-05-25T21:39:50.570Z,2.70
2023-05-25T21:42:18.983Z,2.40
2023-05-25T21:44:47.416Z,2.30
2023-05-25T21:47:17.389Z,2.50
2023-05-25T21:49:45.913Z,2.60
2023-05-25T21:52:20.302Z,7.70
2023-05-25T21:54:48.874Z,3.00
2023-05-25T21:57:17.337Z,2.13
2023-05-25T21:59:45.781Z,1.80
2023-05-25T22:02:14.218Z,2.10
2023-05-25T22:04:44.185Z,2.10
2023-05-25T22:07:12.700Z,2.20
2023-05-25T22:09:41.133Z,2.27
2023-05-25T22:12:12.157Z,2.30
2023-05-25T22:14:40.635Z,1.70
2023-05-25T22:17:10.130Z,2.33
2023-05-25T22:19:38.725Z,2.00
2023-05-25T22:22:08.519Z,2.10
2023-05-25T22:24:37.013Z,2.20
2023-05-25T22:27:06.150Z,2.00
2023-05-25T22:29:34.572Z,2.30
2023-05-25T22:32:03.012Z,2.60
2023-05-25T22:34:31.561Z,2.30
2023-05-25T22:36:59.977Z,2.63
2023-05-25T22:39:29.854Z,2.53
2023-05-25T22:41:58.298Z,2.37
2023-05-25T22:44:26.673Z,2.63
2023-05-25T22:46:55.206Z,2.27
2023-05-25T22:49:23.770Z,2.17
2023-05-25T22:51:52.136Z,2.43
2023-05-25T22:54:20.674Z,2.50
2023-05-25T22:56:51.307Z,2.73
2023-05-25T22:59:19.917Z,2.30
2023-05-25T23:01:48.426Z,2.57
2023-05-25T23:04:17.108Z,1.90
2023-05-25T23:06:45.661Z,2.20
2023-05-25T23:09:14.245Z,2.50
2023-05-25T23:11:42.578Z,2.73
2023-05-25T23:14:12.976Z,2.40
2023-05-25T23:16:41.778Z,2.00
2023-05-25T23:19:10.221Z,3.17
2023-05-25T23:21:38.695Z,2.30
2023-05-25T23:24:07.745Z,2.90
2023-05-25T23:26:36.200Z,2.20
2023-05-25T23:29:04.599Z,2.23
2023-05-25T23:31:34.800Z,2.20
2023-05-25T23:34:03.214Z,2.37
2023-05-25T23:36:31.669Z,1.90
2023-05-25T23:39:00.153Z,2.30
2023-05-25T23:41:28.745Z,2.10
2023-05-25T23:43:57.872Z,2.47
2023-05-25T23:46:27.863Z,2.07
2023-05-25T23:48:57.780Z,2.60
2023-05-25T23:51:26.309Z,2.43
2023-05-25T23:53:54.701Z,2.30
2023-05-25T23:56:23.210Z,2.47
2023-05-25T23:58:51.700Z,2.30
